createdAt,value
2022-12-23T00:01:37.243Z,5.82
2022-12-23T00:04:06.430Z,6.17
2022-12-23T00:06:34.967Z,5.99
2022-12-23T00:09:03.516Z,6.12
2022-12-23T00:11:31.780Z,6.03
2022-12-23T00:14:21.474Z,6.10
2022-12-23T00:16:51.372Z,6.25
2022-12-23T00:19:19.850Z,6.17
2022-12-23T00:21:48.775Z,6.31
2022-12-23T00:24:17.235Z,6.22
2022-12-23T00:26:45.129Z,6.44
2022-12-23T00:29:13.109Z,6.42
2022-12-23T00:31:41.429Z,6.51
2022-12-23T00:34:09.682Z,6.48
2022-12-23T00:36:38.528Z,6.67
2022-12-23T00:39:25.569Z,6.53
2022-12-23T00:42:12.236Z,6.62
2022-12-23T00:44:40.331Z,6.91
2022-12-23T00:47:28.079Z,6.86
2022-12-23T00:49:56.364Z,6.69
2022-12-23T00:52:24.226Z,6.81
2022-12-23T00:54:52.253Z,6.83
2022-12-23T00:57:20.526Z,7.19
2022-12-23T00:59:48.407Z,7.23
2022-12-23T01:02:35.326Z,6.87
2022-12-23T01:05:22.566Z,6.54
2022-12-23T01:07:50.429Z,6.95
2022-12-23T01:10:18.598Z,6.93
2022-12-23T01:12:46.430Z,7.06
2022-12-23T01:15:14.405Z,6.87
2022-12-23T01:17:42.729Z,6.94
2022-12-23T01:20:11.311Z,6.94
2022-12-23T01:22:39.296Z,7.02
2022-12-23T01:25:08.063Z,7.06
2022-12-23T01:27:35.937Z,6.44
2022-12-23T01:30:04.427Z,7.04
2022-12-23T01:32:32.619Z,7.37
2022-12-23T01:35:00.499Z,7.54
2022-12-23T01:37:28.428Z,7.26
2022-12-23T01:39:56.683Z,7.54
2022-12-23T01:42:43.422Z,7.35
2022-12-23T01:45:17.739Z,7.54
2022-12-23T01:47:50.260Z,7.71
2022-12-23T01:50:31.143Z,7.55
2022-12-23T01:53:14.231Z,7.40
2022-12-23T01:55:44.386Z,7.42
2022-12-23T01:58:21.721Z,7.32
2022-12-23T02:01:08.632Z,7.45
2022-12-23T02:03:42.518Z,7.37
2022-12-23T02:06:34.482Z,7.60
2022-12-23T02:09:17.696Z,7.47
2022-12-23T02:12:24.256Z,7.59
2022-12-23T02:15:14.058Z,7.45
2022-12-23T02:17:44.546Z,6.97
2022-12-23T02:20:34.503Z,6.75
2022-12-23T02:23:23.736Z,6.82
2022-12-23T02:26:13.620Z,6.57
2022-12-23T02:29:00.377Z,6.85
2022-12-23T02:31:47.161Z,6.05
2022-12-23T02:34:22.747Z,6.13
2022-12-23T02:37:05.010Z,6.04
2022-12-23T02:39:56.768Z,5.98
2022-12-23T02:42:31.418Z,6.52
2022-12-23T02:45:00.450Z,5.88
2022-12-23T02:47:50.828Z,6.46
2022-12-23T02:50:21.984Z,6.11
2022-12-23T02:52:52.205Z,5.72
2022-12-23T02:55:24.623Z,5.34
2022-12-23T02:57:55.217Z,5.41
2022-12-23T03:00:23.347Z,4.50
2022-12-23T03:02:51.371Z,5.43
2022-12-23T03:05:33.612Z,4.71
2022-12-23T03:08:04.281Z,4.78
2022-12-23T03:11:08.264Z,5.23
2022-12-23T03:14:13.292Z,5.27
2022-12-23T03:17:05.928Z,4.96
2022-12-23T03:20:01.242Z,5.49
2022-12-23T03:22:39.649Z,5.43
2022-12-23T03:25:32.029Z,5.50
2022-12-23T03:28:29.623Z,5.21
2022-12-23T03:30:59.691Z,5.22
2022-12-23T03:33:28.671Z,5.30
2022-12-23T03:36:02.661Z,5.37
2022-12-23T03:38:32.695Z,5.15
2022-12-23T03:41:05.192Z,5.22
2022-12-23T03:43:50.759Z,5.53
2022-12-23T03:46:33.108Z,5.70
2022-12-23T03:49:25.128Z,5.70
2022-12-23T03:52:18.914Z,5.54
2022-12-23T03:54:55.158Z,5.33
2022-12-23T03:57:26.739Z,5.40
2022-12-23T03:59:55.132Z,5.04
2022-12-23T04:02:26.196Z,5.21
2022-12-23T04:05:07.072Z,5.31
2022-12-23T04:07:45.591Z,4.49
2022-12-23T04:10:14.319Z,4.85
2022-12-23T04:12:42.263Z,4.89
2022-12-23T04:15:13.088Z,4.26
2022-12-23T04:17:41.784Z,5.07
2022-12-23T04:20:10.799Z,5.02
2022-12-23T04:22:39.744Z,4.84
2022-12-23T04:25:08.966Z,5.10
2022-12-23T04:27:37.065Z,4.89
2022-12-23T04:30:06.447Z,4.90
2022-12-23T04:32:34.829Z,4.63
2022-12-23T04:35:02.840Z,4.82
2022-12-23T04:37:30.704Z,4.56
2022-12-23T04:39:58.967Z,3.99
2022-12-23T04:42:26.955Z,4.28
2022-12-23T04:44:54.822Z,4.57
2022-12-23T04:47:23.248Z,4.31
2022-12-23T04:49:51.240Z,3.87
2022-12-23T04:52:19.088Z,4.35
2022-12-23T04:54:47.365Z,4.75
2022-12-23T04:57:16.395Z,4.49
2022-12-23T04:59:44.300Z,4.43
2022-12-23T05:02:12.815Z,4.48
2022-12-23T05:04:41.064Z,4.87
2022-12-23T05:07:08.945Z,4.37
2022-12-23T05:09:37.150Z,4.39
2022-12-23T05:12:05.111Z,4.66
2022-12-23T05:14:33.062Z,4.68
2022-12-23T05:17:07.183Z,4.86
2022-12-23T05:19:35.930Z,4.81
2022-12-23T05:22:04.136Z,4.62
2022-12-23T05:24:32.123Z,4.94
2022-12-23T05:27:00.637Z,4.43
2022-12-23T05:29:28.972Z,4.55
2022-12-23T05:31:56.922Z,4.87
2022-12-23T05:34:24.875Z,4.83
2022-12-23T05:36:53.077Z,4.35
2022-12-23T05:39:20.914Z,4.13
2022-12-23T05:41:48.810Z,4.28
2022-12-23T05:44:17.034Z,4.30
2022-12-23T05:46:45.008Z,4.28
2022-12-23T05:49:12.906Z,4.46
2022-12-23T05:51:41.088Z,4.07
2022-12-23T05:54:08.967Z,4.04
2022-12-23T05:56:36.890Z,4.22
2022-12-23T05:59:05.160Z,4.13
2022-12-23T06:01:33.211Z,3.93
2022-12-23T06:04:01.614Z,4.37
2022-12-23T06:06:29.696Z,4.30
2022-12-23T06:08:59.758Z,4.50
2022-12-23T06:11:28.849Z,4.25
2022-12-23T06:13:56.742Z,4.10
2022-12-23T06:16:24.816Z,4.15
2022-12-23T06:18:56.688Z,4.08
2022-12-23T06:21:25.748Z,3.89
2022-12-23T06:23:53.982Z,4.03
2022-12-23T06:26:22.038Z,3.83
2022-12-23T06:28:50.174Z,4.13
2022-12-23T06:31:18.463Z,4.01
2022-12-23T06:33:46.368Z,4.19
2022-12-23T06:36:14.281Z,4.20
2022-12-23T06:38:42.590Z,4.18
2022-12-23T06:41:10.503Z,4.62
2022-12-23T06:43:38.486Z,4.07
2022-12-23T06:46:06.818Z,3.86
2022-12-23T06:48:34.810Z,4.16
2022-12-23T06:51:02.793Z,4.29
2022-12-23T06:53:31.099Z,3.82
2022-12-23T06:56:02.606Z,3.85
2022-12-23T06:58:30.835Z,4.10
2022-12-23T07:00:58.828Z,3.62
2022-12-23T07:03:26.953Z,4.15
2022-12-23T07:05:55.334Z,3.97
2022-12-23T07:08:23.379Z,3.96
2022-12-23T07:10:51.404Z,3.50
2022-12-23T07:13:19.707Z,3.97
2022-12-23T07:15:47.636Z,4.09
2022-12-23T07:18:16.201Z,4.16
2022-12-23T07:20:44.467Z,3.95
2022-12-23T07:23:12.381Z,4.18
2022-12-23T07:25:40.642Z,4.36
2022-12-23T07:28:09.106Z,4.37
2022-12-23T07:30:37.207Z,4.55
2022-12-23T07:33:05.091Z,4.17
2022-12-23T07:35:33.995Z,4.16
2022-12-23T07:38:02.083Z,4.40
2022-12-23T07:40:30.006Z,4.71
2022-12-23T07:42:59.278Z,4.18
2022-12-23T07:45:28.746Z,4.59
2022-12-23T07:47:58.429Z,4.13
2022-12-23T07:50:27.189Z,4.03
2022-12-23T07:52:55.801Z,4.73
2022-12-23T07:55:23.777Z,4.46
2022-12-23T07:57:52.873Z,4.22
2022-12-23T08:00:21.292Z,4.24
2022-12-23T08:02:49.937Z,4.28
2022-12-23T08:05:19.052Z,4.77
2022-12-23T08:07:49.697Z,4.90
2022-12-23T08:10:18.154Z,4.93
2022-12-23T08:12:46.773Z,4.48
2022-12-23T08:15:14.916Z,4.23
2022-12-23T08:17:43.180Z,4.24
2022-12-23T08:20:11.613Z,4.41
2022-12-23T08:22:39.647Z,4.35
2022-12-23T08:25:08.381Z,4.39
2022-12-23T08:27:36.247Z,4.44
2022-12-23T08:30:07.105Z,4.65
2022-12-23T08:32:35.495Z,4.56
2022-12-23T08:35:03.500Z,4.45
2022-12-23T08:37:31.468Z,4.68
2022-12-23T08:39:59.737Z,4.67
2022-12-23T08:42:27.621Z,4.49
2022-12-23T08:44:55.540Z,4.68
2022-12-23T08:47:23.928Z,4.74
2022-12-23T08:49:51.894Z,4.92
2022-12-23T08:52:19.895Z,4.35
2022-12-23T08:54:48.276Z,4.81
2022-12-23T08:57:16.272Z,4.60
2022-12-23T08:59:44.343Z,5.00
2022-12-23T09:02:12.879Z,4.97
2022-12-23T09:04:41.134Z,4.68
2022-12-23T09:07:09.060Z,4.96
2022-12-23T09:09:38.369Z,5.04
2022-12-23T09:12:06.510Z,4.59
2022-12-23T09:14:34.518Z,4.60
2022-12-23T09:17:02.953Z,5.01
2022-12-23T09:19:30.952Z,5.09
2022-12-23T09:21:58.858Z,4.37
2022-12-23T09:24:27.164Z,4.64
2022-12-23T09:26:55.017Z,4.76
2022-12-23T09:29:23.387Z,5.35
2022-12-23T09:31:51.841Z,4.73
2022-12-23T09:34:19.833Z,4.80
2022-12-23T09:36:53.410Z,5.34
2022-12-23T09:39:24.404Z,5.25
2022-12-23T09:42:06.492Z,4.99
2022-12-23T09:45:28.635Z,5.24
2022-12-23T09:47:57.204Z,5.18
2022-12-23T09:50:29.505Z,5.12
2022-12-23T09:52:57.369Z,5.06
2022-12-23T09:55:34.829Z,5.13
2022-12-23T09:58:08.472Z,5.18
2022-12-23T10:00:43.222Z,4.69
2022-12-23T10:03:36.220Z,4.82
2022-12-23T10:06:21.171Z,5.04
2022-12-23T10:08:51.962Z,4.90
2022-12-23T10:11:27.333Z,5.13
2022-12-23T10:14:15.944Z,5.28
2022-12-23T10:16:47.475Z,5.20
2022-12-23T10:19:42.217Z,4.91
2022-12-23T10:22:16.500Z,4.57
2022-12-23T10:24:46.679Z,4.75
2022-12-23T10:27:36.097Z,5.04
2022-12-23T10:30:34.235Z,4.77
2022-12-23T10:33:29.007Z,5.22
2022-12-23T10:36:15.688Z,5.50
2022-12-23T10:38:55.661Z,5.29
2022-12-23T10:41:23.929Z,5.22
2022-12-23T10:44:03.888Z,5.09
2022-12-23T10:47:17.530Z,5.17
2022-12-23T10:50:09.053Z,5.05
2022-12-23T10:52:40.458Z,5.33
2022-12-23T10:55:20.727Z,4.94
2022-12-23T10:57:50.159Z,4.93
2022-12-23T11:00:22.113Z,5.15
2022-12-23T11:03:13.256Z,4.41
2022-12-23T11:05:42.110Z,4.69
2022-12-23T11:08:11.234Z,4.90
2022-12-23T11:10:39.827Z,5.06
2022-12-23T11:13:07.753Z,5.09
2022-12-23T11:15:38.843Z,5.33
2022-12-23T11:18:06.814Z,5.70
2022-12-23T11:20:36.742Z,5.99
2022-12-23T11:23:07.519Z,5.48
2022-12-23T11:25:38.581Z,5.94
2022-12-23T11:28:22.380Z,5.54
2022-12-23T11:31:12.118Z,5.41
2022-12-23T11:33:46.700Z,5.63
2022-12-23T11:36:19.622Z,5.86
2022-12-23T11:39:08.155Z,6.07
2022-12-23T11:41:51.123Z,5.97
2022-12-23T11:44:36.334Z,5.68
2022-12-23T11:47:23.023Z,5.60
2022-12-23T11:49:56.891Z,5.74
2022-12-23T11:52:27.149Z,5.97
2022-12-23T11:55:00.743Z,6.26
2022-12-23T11:57:49.009Z,5.57
2022-12-23T12:00:21.964Z,5.63
2022-12-23T12:02:55.912Z,5.49
2022-12-23T12:05:40.045Z,5.69
2022-12-23T12:08:15.225Z,6.04
2022-12-23T12:10:45.712Z,6.39
2022-12-23T12:13:42.277Z,5.77
2022-12-23T12:16:48.690Z,5.89
2022-12-23T12:19:35.422Z,5.99
2022-12-23T12:22:11.296Z,5.79
2022-12-23T12:24:44.320Z,5.84
2022-12-23T12:27:13.966Z,6.56
2022-12-23T12:29:56.730Z,6.12
2022-12-23T12:32:44.351Z,6.07
2022-12-23T12:35:31.923Z,6.29
2022-12-23T12:38:02.976Z,6.47
2022-12-23T12:40:52.214Z,6.47
2022-12-23T12:43:33.786Z,6.21
2022-12-23T12:46:47.776Z,6.14
2022-12-23T12:49:37.589Z,6.20
2022-12-23T12:52:20.664Z,5.36
2022-12-23T12:55:07.039Z,6.06
2022-12-23T12:57:36.593Z,5.79
2022-12-23T13:00:07.069Z,5.28
2022-12-23T13:02:56.723Z,5.91
2022-12-23T13:05:49.960Z,6.48
2022-12-23T13:08:52.272Z,5.91
2022-12-23T13:11:47.310Z,6.04
2022-12-23T13:14:30.211Z,6.14
2022-12-23T13:17:37.641Z,6.04
2022-12-23T13:20:19.778Z,6.13
2022-12-23T13:22:50.683Z,6.08
2022-12-23T13:25:23.206Z,6.19
2022-12-23T13:28:19.083Z,6.19
2022-12-23T13:31:11.817Z,6.01
2022-12-23T13:34:08.880Z,6.13
2022-12-23T13:36:49.406Z,6.16
2022-12-23T13:39:47.088Z,6.35
2022-12-23T13:42:25.754Z,6.34
2022-12-23T13:44:54.719Z,6.38
2022-12-23T13:47:41.916Z,6.35
2022-12-23T13:50:30.191Z,6.45
2022-12-23T13:53:07.843Z,5.84
2022-12-23T13:55:59.763Z,6.13
2022-12-23T13:58:31.472Z,6.13
2022-12-23T14:01:14.080Z,6.24
2022-12-23T14:03:45.018Z,6.21
2022-12-23T14:06:27.509Z,5.96
2022-12-23T14:08:59.400Z,5.86
2022-12-23T14:11:32.321Z,6.21
2022-12-23T14:14:06.554Z,6.45
2022-12-23T14:16:46.012Z,6.68
2022-12-23T14:19:29.405Z,6.81
2022-12-23T14:22:00.309Z,6.32
2022-12-23T14:24:34.630Z,5.87
2022-12-23T14:27:24.708Z,6.33
2022-12-23T14:30:31.493Z,6.36
2022-12-23T14:33:02.529Z,6.37
2022-12-23T14:35:40.338Z,6.68
2022-12-23T14:38:17.336Z,6.46
2022-12-23T14:40:50.634Z,6.49
2022-12-23T14:43:53.015Z,6.52
2022-12-23T14:46:36.832Z,6.59
2022-12-23T14:49:41.181Z,6.62
2022-12-23T14:52:44.807Z,7.20
2022-12-23T14:55:31.587Z,6.48
2022-12-23T14:58:13.257Z,6.81
2022-12-23T15:01:02.292Z,6.69
2022-12-23T15:03:34.341Z,6.93
2022-12-23T15:06:07.528Z,7.00
2022-12-23T15:08:39.244Z,7.15
2022-12-23T15:11:09.636Z,6.89
2022-12-23T15:13:38.222Z,7.56
2022-12-23T15:16:06.701Z,7.53
2022-12-23T15:18:34.695Z,7.25
2022-12-23T15:21:09.521Z,6.81
2022-12-23T15:23:37.523Z,7.02
2022-12-23T15:26:06.040Z,7.19
2022-12-23T15:28:39.792Z,7.10
2022-12-23T15:31:26.138Z,7.01
2022-12-23T15:34:03.942Z,6.60
2022-12-23T15:36:37.230Z,6.34
2022-12-23T15:39:14.415Z,6.82
2022-12-23T15:41:47.547Z,6.57
2022-12-23T15:44:21.756Z,6.71
2022-12-23T15:46:51.206Z,7.23
2022-12-23T15:49:22.048Z,7.18
2022-12-23T15:52:07.787Z,7.07
2022-12-23T15:54:43.507Z,6.39
2022-12-23T15:57:16.888Z,6.40
2022-12-23T15:59:45.129Z,6.44
2022-12-23T16:05:36.904Z,6.58
2022-12-23T16:08:14.170Z,6.46
2022-12-23T16:10:44.094Z,6.31
2022-12-23T16:13:20.045Z,6.84
2022-12-23T16:15:48.610Z,6.74
2022-12-23T16:18:19.753Z,7.12
2022-12-23T16:20:53.791Z,6.86
2022-12-23T16:23:22.534Z,7.02
2022-12-23T16:25:52.338Z,6.70
2022-12-23T16:28:24.563Z,6.48
2022-12-23T16:30:55.160Z,6.77
2022-12-23T16:33:44.901Z,7.24
2022-12-23T16:36:36.059Z,7.96
2022-12-23T16:39:25.688Z,7.30
2022-12-23T16:41:54.014Z,7.04
2022-12-23T16:44:22.054Z,7.12
2022-12-23T16:46:51.202Z,7.37
2022-12-23T16:49:22.451Z,6.98
2022-12-23T16:51:53.460Z,6.79
2022-12-23T16:54:21.859Z,7.45
2022-12-23T16:56:50.401Z,7.55
2022-12-23T16:59:18.410Z,7.06
2022-12-23T17:01:48.765Z,6.88
2022-12-23T17:04:17.239Z,6.73
2022-12-23T17:06:46.800Z,7.06
2022-12-23T17:09:15.179Z,7.55
2022-12-23T17:11:46.828Z,6.90
2022-12-23T17:14:21.123Z,7.33
2022-12-23T17:16:50.078Z,6.60
2022-12-23T17:19:27.168Z,6.87
2022-12-23T17:22:00.446Z,6.46
2022-12-23T17:24:28.920Z,6.18
2022-12-23T17:26:57.156Z,6.18
2022-12-23T17:29:25.452Z,5.58
2022-12-23T17:31:54.296Z,6.37
2022-12-23T17:34:24.115Z,6.68
2022-12-23T17:36:55.077Z,5.95
2022-12-23T17:39:23.481Z,6.19
2022-12-23T17:41:51.645Z,6.29
2022-12-23T17:44:20.165Z,5.49
2022-12-23T17:46:48.746Z,5.06
2022-12-23T17:49:16.690Z,5.92
2022-12-23T17:51:44.752Z,6.09
2022-12-23T17:54:23.205Z,5.97
2022-12-23T17:56:51.815Z,5.07
2022-12-23T17:59:21.908Z,5.39
2022-12-23T18:01:50.303Z,5.73
2022-12-23T18:04:18.911Z,5.25
2022-12-23T18:06:46.973Z,4.85
2022-12-23T18:09:14.931Z,4.99
2022-12-23T18:11:45.515Z,5.59
2022-12-23T18:14:32.222Z,5.59
2022-12-23T18:17:00.858Z,5.09
2022-12-23T18:19:30.827Z,5.33
2022-12-23T18:21:59.072Z,5.64
2022-12-23T18:24:27.457Z,5.49
2022-12-23T18:26:55.494Z,5.13
2022-12-23T18:29:23.572Z,5.32
2022-12-23T18:31:52.443Z,5.41
2022-12-23T18:34:21.213Z,5.21
2022-12-23T18:36:52.121Z,5.05
2022-12-23T18:39:21.140Z,5.39
2022-12-23T18:41:49.331Z,4.90
2022-12-23T18:44:19.668Z,5.29
2022-12-23T18:46:48.801Z,5.22
2022-12-23T18:49:16.973Z,5.32
2022-12-23T18:51:45.255Z,4.48
2022-12-23T18:54:17.432Z,4.97
2022-12-23T18:56:45.651Z,4.94
2022-12-23T18:59:24.024Z,4.69
2022-12-23T19:01:56.452Z,5.10
2022-12-23T19:04:25.700Z,4.94
2022-12-23T19:06:55.554Z,5.32
2022-12-23T19:09:24.336Z,5.62
2022-12-23T19:11:54.083Z,5.22
2022-12-23T19:14:22.378Z,5.23
2022-12-23T19:16:52.411Z,5.11
2022-12-23T19:19:21.731Z,4.70
2022-12-23T19:21:49.680Z,4.99
2022-12-23T19:24:17.979Z,4.50
2022-12-23T19:26:46.302Z,4.70
2022-12-23T19:29:14.368Z,4.73
2022-12-23T19:31:42.245Z,5.05
2022-12-23T19:34:14.951Z,5.33
2022-12-23T19:36:44.223Z,4.78
2022-12-23T19:39:16.988Z,4.47
2022-12-23T19:41:45.888Z,4.97
2022-12-23T19:44:14.936Z,4.89
2022-12-23T19:46:43.111Z,5.08
2022-12-23T19:49:19.297Z,5.89
2022-12-23T19:51:48.938Z,4.87
2022-12-23T19:54:18.220Z,4.64
2022-12-23T19:56:46.351Z,4.70
2022-12-23T19:59:14.760Z,4.63
2022-12-23T20:01:42.848Z,5.23
2022-12-23T20:04:11.705Z,4.99
2022-12-23T20:06:41.570Z,5.33
2022-12-23T20:09:12.210Z,5.15
2022-12-23T20:11:42.915Z,5.53
2022-12-23T20:14:12.417Z,5.23
2022-12-23T20:16:41.317Z,5.08
2022-12-23T20:19:09.649Z,4.78
2022-12-23T20:21:37.767Z,5.25
2022-12-23T20:24:06.771Z,6.11
2022-12-23T20:26:34.843Z,6.33
2022-12-23T20:29:02.826Z,5.88
2022-12-23T20:31:33.535Z,5.59
2022-12-23T20:34:02.599Z,5.24
2022-12-23T20:36:33.218Z,4.95
2022-12-23T20:39:03.603Z,5.16
2022-12-23T20:41:31.797Z,5.37
2022-12-23T20:44:33.458Z,5.41
2022-12-23T20:46:48.815Z,5.48
2022-12-23T20:49:16.987Z,5.70
2022-12-23T20:51:44.868Z,5.56
2022-12-23T20:54:13.188Z,5.93
2022-12-23T20:56:41.239Z,5.84
2022-12-23T20:59:09.258Z,5.26
2022-12-23T21:01:39.895Z,5.90
2022-12-23T21:04:10.115Z,5.28
2022-12-23T21:06:38.988Z,5.48
2022-12-23T21:09:08.946Z,5.64
2022-12-23T21:11:43.271Z,5.57
2022-12-23T21:14:12.284Z,5.91
2022-12-23T21:16:41.159Z,5.57
2022-12-23T21:19:14.757Z,5.79
2022-12-23T21:21:43.238Z,6.55
2022-12-23T21:24:11.519Z,6.76
2022-12-23T21:26:39.659Z,6.80
2022-12-23T21:29:09.292Z,6.25
2022-12-23T21:31:39.512Z,5.77
2022-12-23T21:34:08.444Z,5.74
2022-12-23T21:36:38.979Z,5.88
2022-12-23T21:39:09.006Z,6.83
2022-12-23T21:41:39.024Z,6.82
2022-12-23T21:44:07.582Z,6.53
2022-12-23T21:46:35.566Z,6.69
2022-12-23T21:49:03.892Z,6.22
2022-12-23T21:51:42.002Z,5.57
2022-12-23T21:54:11.492Z,5.28
2022-12-23T21:56:41.218Z,5.46
2022-12-23T21:59:12.646Z,5.57
2022-12-23T22:01:42.716Z,5.66
2022-12-23T22:04:11.600Z,5.34
2022-12-23T22:06:43.853Z,4.99
2022-12-23T22:09:15.655Z,5.35
2022-12-23T22:11:44.139Z,5.22
2022-12-23T22:14:14.932Z,5.57
2022-12-23T22:16:43.025Z,5.42
2022-12-23T22:19:12.077Z,5.62
2022-12-23T22:21:40.441Z,5.88
2022-12-23T22:24:09.034Z,5.45
2022-12-23T22:26:37.190Z,5.25
2022-12-23T22:29:07.178Z,5.64
2022-12-23T22:31:48.863Z,5.69
2022-12-23T22:34:21.757Z,5.69
2022-12-23T22:36:50.101Z,5.89
2022-12-23T22:39:21.417Z,6.05
2022-12-23T22:41:50.824Z,5.88
2022-12-23T22:44:20.109Z,6.00
2022-12-23T22:46:48.461Z,5.63
2022-12-23T22:49:16.950Z,5.68
2022-12-23T22:51:45.407Z,5.75
2022-12-23T22:54:13.335Z,5.89
2022-12-23T22:56:41.348Z,6.10
2022-12-23T22:59:24.229Z,5.92
2022-12-23T23:01:52.875Z,5.31
2022-12-23T23:04:21.575Z,5.33
2022-12-23T23:06:49.865Z,5.71
2022-12-23T23:09:20.245Z,6.17
2022-12-23T23:11:49.393Z,6.06
2022-12-23T23:14:18.881Z,6.30
2022-12-23T23:16:46.792Z,6.52
2022-12-23T23:19:16.600Z,6.54
2022-12-23T23:21:44.574Z,6.34
2022-12-23T23:24:12.659Z,6.52
2022-12-23T23:26:40.861Z,6.19
2022-12-23T23:29:08.751Z,5.74
2022-12-23T23:31:42.328Z,6.31
2022-12-23T23:34:13.477Z,5.85
2022-12-23T23:36:41.611Z,6.37
2022-12-23T23:39:12.120Z,6.48
2022-12-23T23:41:41.297Z,6.52
2022-12-23T23:44:09.380Z,6.20
2022-12-23T23:46:37.438Z,6.41
2022-12-23T23:49:06.021Z,6.45
2022-12-23T23:51:34.139Z,5.51
2022-12-23T23:54:02.194Z,5.97
2022-12-23T23:56:37.540Z,6.23
2022-12-23T23:59:06.045Z,5.95
